Time;durP1;ratioP1;P1;durP2;ratioP2;P2;SDS_P1;SDS_P2;PMS_P1;PMS_P2;Temp;Humidity;BMP_temperature;BMP_pressure;BME280_temperature;BME280_humidity;BME280_pressure;Samples;Min_cycle;Max_cycle;Signal;HPM_P1;HPM_P2
2021/12/22 07:35:37;;;;;;;38.63;19.60;;;;;;;;;;5067038;28;21182;-83
2021/12/22 07:38:23;;;;;;;44.30;20.97;;;;;;;;;;5047183;28;20532;-82
2021/12/22 07:40:49;;;;;;;42.53;19.83;;;;;;;;;;5045720;28;20410;-82
2021/12/22 07:43:15;;;;;;;37.50;19.27;;;;;;;;;;5047128;28;20403;-82
2021/12/22 07:45:41;;;;;;;31.83;19.00;;;;;;;;;;5045800;28;20430;-82
2021/12/22 07:48:07;;;;;;;47.50;23.23;;;;;;;;;;5045772;28;20403;-83
2021/12/22 07:50:33;;;;;;;47.73;19.73;;;;;;;;;;5045594;28;20444;-83
2021/12/22 07:52:59;;;;;;;36.33;18.33;;;;;;;;;;5045442;28;20979;-83
2021/12/22 07:55:25;;;;;;;45.57;20.27;;;;;;;;;;5043885;28;20470;-83
2021/12/22 07:57:51;;;;;;;52.73;25.07;;;;;;;;;;5040264;28;20419;-84
2021/12/22 08:00:17;;;;;;;59.07;27.10;;;;;;;;;;5045698;28;20529;-88
2021/12/22 08:02:43;;;;;;;59.07;25.63;;;;;;;;;;5037312;28;20541;-87
2021/12/22 08:05:09;;;;;;;70.03;26.40;;;;;;;;;;5050261;28;20437;-88
2021/12/22 08:07:35;;;;;;;66.40;25.20;;;;;;;;;;5043337;28;20516;-87
2021/12/22 08:10:02;;;;;;;65.90;27.07;;;;;;;;;;5033400;28;20430;-83
2021/12/22 08:12:28;;;;;;;49.17;23.80;;;;;;;;;;5038985;28;20565;-82
2021/12/22 08:14:54;;;;;;;64.00;22.97;;;;;;;;;;5065949;28;20548;-83
2021/12/22 08:17:21;;;;;;;47.70;22.07;;;;;;;;;;5065898;28;20492;-83
2021/12/22 08:19:47;;;;;;;73.63;26.73;;;;;;;;;;5067967;28;20386;-82
2021/12/22 08:22:13;;;;;;;56.13;27.53;;;;;;;;;;5065345;28;20505;-82
2021/12/22 08:24:39;;;;;;;92.70;29.03;;;;;;;;;;5064459;28;20523;-82
2021/12/22 08:27:05;;;;;;;58.13;22.57;;;;;;;;;;5066017;28;20421;-82
2021/12/22 08:29:31;;;;;;;52.87;22.50;;;;;;;;;;5064575;28;20417;-83
2021/12/22 08:31:57;;;;;;;70.50;26.27;;;;;;;;;;5065723;28;20790;-82
2021/12/22 08:34:28;;;;;;;68.47;28.70;;;;;;;;;;5065504;28;20575;-82
2021/12/22 08:39:41;;;;;;;75.47;30.13;;;;;;;;;;5065605;28;20984;-82
2021/12/22 08:42:07;;;;;;;71.87;30.27;;;;;;;;;;5065491;28;20769;-82
2021/12/22 08:44:33;;;;;;;62.33;26.10;;;;;;;;;;5069261;28;20428;-82
2021/12/22 08:46:59;;;;;;;80.40;29.30;;;;;;;;;;5053855;28;20459;-83
2021/12/22 08:49:25;;;;;;;68.77;28.93;;;;;;;;;;5055450;28;20415;-82
2021/12/22 08:51:51;;;;;;;63.43;24.27;;;;;;;;;;5055107;28;20399;-83
2021/12/22 08:54:18;;;;;;;70.70;27.30;;;;;;;;;;5042702;28;20521;-83
2021/12/22 08:56:44;;;;;;;64.43;26.93;;;;;;;;;;5033943;28;20419;-83
2021/12/22 08:59:11;;;;;;;62.60;27.10;;;;;;;;;;5033914;28;20447;-83
2021/12/22 09:01:37;;;;;;;63.03;32.23;;;;;;;;;;5033823;28;20413;-83
2021/12/22 09:04:03;;;;;;;59.60;29.00;;;;;;;;;;5031975;28;20455;-83
2021/12/22 09:06:29;;;;;;;75.07;36.63;;;;;;;;;;5031842;28;20494;-83
2021/12/22 09:08:55;;;;;;;78.60;37.40;;;;;;;;;;5031805;28;20970;-83
2021/12/22 09:11:22;;;;;;;108.97;45.30;;;;;;;;;;5038530;28;20445;-83
2021/12/22 09:13:48;;;;;;;91.97;49.43;;;;;;;;;;5050364;28;20502;-83
2021/12/22 09:16:14;;;;;;;95.13;41.77;;;;;;;;;;5051544;28;20428;-83
2021/12/22 09:18:41;;;;;;;103.67;51.60;;;;;;;;;;5051621;28;20422;-83
2021/12/22 09:21:08;;;;;;;128.83;64.03;;;;;;;;;;5050216;28;20407;-83
2021/12/22 09:23:34;;;;;;;81.07;47.70;;;;;;;;;;5048099;28;20917;-83
2021/12/22 09:26:00;;;;;;;84.37;52.50;;;;;;;;;;5031369;28;20855;-83
2021/12/22 09:28:26;;;;;;;97.53;52.87;;;;;;;;;;5031325;28;20411;-83
2021/12/22 09:30:52;;;;;;;171.07;89.47;;;;;;;;;;5030145;28;20873;-84
2021/12/22 09:33:19;;;;;;;140.87;71.50;;;;;;;;;;5031320;28;20486;-83
2021/12/22 09:35:46;;;;;;;216.10;103.97;;;;;;;;;;5031295;28;20432;-83
